sensor_id;sensor_type;location;lat;lon;timestamp;pressure;altitude;pressure_sealevel;temperature;humidity
72370;BME280;60343;-32.030;115.880;2022-10-16T00:00:09;101686.16;;;16.89;65.18
72370;BME280;60343;-32.030;115.880;2022-10-16T00:02:37;101668.94;;;17.18;63.30
72370;BME280;60343;-32.030;115.880;2022-10-16T00:05:05;101683.50;;;17.60;61.89
72370;BME280;60343;-32.030;115.880;2022-10-16T00:07:33;101686.03;;;17.68;60.02
72370;BME280;60343;-32.030;115.880;2022-10-16T00:10:07;101682.66;;;17.59;60.73
72370;BME280;60343;-32.030;115.880;2022-10-16T00:12:35;101684.41;;;17.73;60.57
72370;BME280;60343;-32.030;115.880;2022-10-16T00:15:06;101683.94;;;17.63;60.52
72370;BME280;60343;-32.030;115.880;2022-10-16T00:17:34;101689.78;;;17.45;61.01
72370;BME280;60343;-32.030;115.880;2022-10-16T00:20:02;101699.38;;;17.20;60.95
72370;BME280;60343;-32.030;115.880;2022-10-16T00:22:33;101700.47;;;17.04;60.23
72370;BME280;60343;-32.030;115.880;2022-10-16T00:25:10;101700.97;;;16.93;60.75
72370;BME280;60343;-32.030;115.880;2022-10-16T00:27:38;101703.16;;;16.83;61.11
72370;BME280;60343;-32.030;115.880;2022-10-16T00:30:09;101701.09;;;17.28;60.75
72370;BME280;60343;-32.030;115.880;2022-10-16T00:32:37;101696.75;;;18.17;57.92
72370;BME280;60343;-32.030;115.880;2022-10-16T00:35:05;101694.41;;;19.22;55.98
72370;BME280;60343;-32.030;115.880;2022-10-16T00:37:33;101699.22;;;19.99;51.72
72370;BME280;60343;-32.030;115.880;2022-10-16T00:40:10;101695.09;;;19.70;49.66
72370;BME280;60343;-32.030;115.880;2022-10-16T00:42:40;101699.25;;;19.73;49.72
72370;BME280;60343;-32.030;115.880;2022-10-16T00:45:09;101710.69;;;19.09;50.41
72370;BME280;60343;-32.030;115.880;2022-10-16T00:47:42;101711.38;;;18.57;51.04
72370;BME280;60343;-32.030;115.880;2022-10-16T00:50:13;101702.09;;;18.85;50.03
72370;BME280;60343;-32.030;115.880;2022-10-16T00:52:46;101702.16;;;19.78;49.19
72370;BME280;60343;-32.030;115.880;2022-10-16T00:55:21;101689.31;;;20.24;46.44
72370;BME280;60343;-32.030;115.880;2022-10-16T00:57:49;101692.00;;;20.37;46.20
72370;BME280;60343;-32.030;115.880;2022-10-16T01:00:20;101689.03;;;20.90;44.62
72370;BME280;60343;-32.030;115.880;2022-10-16T01:02:53;101696.06;;;21.35;44.04
72370;BME280;60343;-32.030;115.880;2022-10-16T01:05:22;101694.69;;;21.26;43.43
72370;BME280;60343;-32.030;115.880;2022-10-16T01:07:58;101685.38;;;21.59;42.70
72370;BME280;60343;-32.030;115.880;2022-10-16T01:10:40;101684.66;;;21.70;42.76
72370;BME280;60343;-32.030;115.880;2022-10-16T01:13:07;101690.47;;;21.98;41.93
72370;BME280;60343;-32.030;115.880;2022-10-16T01:15:40;101681.09;;;22.12;41.12
72370;BME280;60343;-32.030;115.880;2022-10-16T01:18:11;101674.09;;;22.35;41.18
72370;BME280;60343;-32.030;115.880;2022-10-16T01:20:44;101681.88;;;21.76;39.12
72370;BME280;60343;-32.030;115.880;2022-10-16T01:23:27;101684.28;;;21.10;39.36
72370;BME280;60343;-32.030;115.880;2022-10-16T01:26:21;101685.53;;;21.64;40.47
72370;BME280;60343;-32.030;115.880;2022-10-16T01:29:01;101674.88;;;22.05;39.03
72370;BME280;60343;-32.030;115.880;2022-10-16T01:31:35;101680.44;;;21.49;41.36
72370;BME280;60343;-32.030;115.880;2022-10-16T01:34:06;101686.28;;;20.96;43.11
72370;BME280;60343;-32.030;115.880;2022-10-16T01:36:41;101684.28;;;21.17;42.56
72370;BME280;60343;-32.030;115.880;2022-10-16T01:39:11;101696.84;;;20.73;43.17
72370;BME280;60343;-32.030;115.880;2022-10-16T01:41:44;101690.59;;;20.15;43.15
72370;BME280;60343;-32.030;115.880;2022-10-16T01:44:24;101689.34;;;20.69;43.04
72370;BME280;60343;-32.030;115.880;2022-10-16T01:46:55;101690.06;;;21.52;41.58
72370;BME280;60343;-32.030;115.880;2022-10-16T01:49:26;101683.81;;;21.94;36.96
72370;BME280;60343;-32.030;115.880;2022-10-16T01:51:58;101678.75;;;21.98;36.56
72370;BME280;60343;-32.030;115.880;2022-10-16T01:54:28;101680.81;;;22.02;33.89
72370;BME280;60343;-32.030;115.880;2022-10-16T01:56:58;101672.13;;;22.23;35.45
72370;BME280;60343;-32.030;115.880;2022-10-16T01:59:35;101670.41;;;22.47;34.45
72370;BME280;60343;-32.030;115.880;2022-10-16T02:02:08;101666.50;;;22.73;34.78
72370;BME280;60343;-32.030;115.880;2022-10-16T02:04:39;101664.63;;;22.85;35.12
72370;BME280;60343;-32.030;115.880;2022-10-16T02:07:07;101657.97;;;22.81;33.91
72370;BME280;60343;-32.030;115.880;2022-10-16T02:09:36;101658.25;;;22.91;34.13
72370;BME280;60343;-32.030;115.880;2022-10-16T02:12:08;101654.88;;;22.59;33.71
72370;BME280;60343;-32.030;115.880;2022-10-16T02:14:43;101656.88;;;22.52;33.75
72370;BME280;60343;-32.030;115.880;2022-10-16T02:17:17;101650.19;;;22.48;34.40
72370;BME280;60343;-32.030;115.880;2022-10-16T02:19:46;101646.56;;;22.54;34.33
72370;BME280;60343;-32.030;115.880;2022-10-16T02:22:18;101641.94;;;22.73;34.00
72370;BME280;60343;-32.030;115.880;2022-10-16T02:24:51;101644.38;;;22.93;35.04
72370;BME280;60343;-32.030;115.880;2022-10-16T02:27:25;101631.94;;;23.08;35.44
72370;BME280;60343;-32.030;115.880;2022-10-16T02:30:03;101630.41;;;23.13;34.63
72370;BME280;60343;-32.030;115.880;2022-10-16T02:32:34;101637.41;;;23.08;35.22
72370;BME280;60343;-32.030;115.880;2022-10-16T02:35:06;101626.59;;;23.14;35.32
72370;BME280;60343;-32.030;115.880;2022-10-16T02:37:35;101634.22;;;23.23;33.27
72370;BME280;60343;-32.030;115.880;2022-10-16T02:40:05;101620.63;;;22.93;33.76
72370;BME280;60343;-32.030;115.880;2022-10-16T02:42:35;101618.25;;;22.67;33.68
72370;BME280;60343;-32.030;115.880;2022-10-16T02:45:10;101608.22;;;22.49;34.44
72370;BME280;60343;-32.030;115.880;2022-10-16T02:47:38;101615.41;;;22.62;34.89
72370;BME280;60343;-32.030;115.880;2022-10-16T02:50:06;101614.47;;;22.68;34.54
72370;BME280;60343;-32.030;115.880;2022-10-16T02:52:34;101619.63;;;22.76;33.64
72370;BME280;60343;-32.030;115.880;2022-10-16T02:55:02;101612.63;;;22.50;34.64
72370;BME280;60343;-32.030;115.880;2022-10-16T02:57:30;101611.59;;;22.33;37.20
72370;BME280;60343;-32.030;115.880;2022-10-16T02:59:57;101608.63;;;22.35;34.89
72370;BME280;60343;-32.030;115.880;2022-10-16T03:02:31;101604.91;;;22.59;35.10
72370;BME280;60343;-32.030;115.880;2022-10-16T03:04:58;101596.72;;;22.59;36.26
72370;BME280;60343;-32.030;115.880;2022-10-16T03:07:26;101589.72;;;22.81;35.17
72370;BME280;60343;-32.030;115.880;2022-10-16T03:09:53;101582.81;;;22.79;33.30
72370;BME280;60343;-32.030;115.880;2022-10-16T03:12:21;101584.00;;;22.71;33.11
72370;BME280;60343;-32.030;115.880;2022-10-16T03:14:49;101572.97;;;22.89;32.97
72370;BME280;60343;-32.030;115.880;2022-10-16T03:17:16;101571.22;;;22.83;33.46
72370;BME280;60343;-32.030;115.880;2022-10-16T03:19:51;101580.00;;;22.97;32.99
72370;BME280;60343;-32.030;115.880;2022-10-16T03:22:19;101568.00;;;22.86;32.75
72370;BME280;60343;-32.030;115.880;2022-10-16T03:24:46;101574.09;;;23.23;35.08
72370;BME280;60343;-32.030;115.880;2022-10-16T03:27:14;101574.81;;;23.30;34.34
72370;BME280;60343;-32.030;115.880;2022-10-16T03:29:42;101573.13;;;23.29;34.50
72370;BME280;60343;-32.030;115.880;2022-10-16T03:32:09;101572.91;;;23.31;32.51
72370;BME280;60343;-32.030;115.880;2022-10-16T03:34:37;101571.63;;;23.45;33.65
72370;BME280;60343;-32.030;115.880;2022-10-16T03:37:11;101566.38;;;23.67;33.33
72370;BME280;60343;-32.030;115.880;2022-10-16T03:39:39;101561.84;;;23.84;31.72
72370;BME280;60343;-32.030;115.880;2022-10-16T03:42:06;101564.25;;;23.57;31.95
72370;BME280;60343;-32.030;115.880;2022-10-16T03:44:34;101574.00;;;23.53;31.50
72370;BME280;60343;-32.030;115.880;2022-10-16T03:47:01;101568.53;;;23.53;32.02
72370;BME280;60343;-32.030;115.880;2022-10-16T03:49:29;101570.56;;;23.58;32.81
72370;BME280;60343;-32.030;115.880;2022-10-16T03:51:57;101564.94;;;23.64;32.34
72370;BME280;60343;-32.030;115.880;2022-10-16T03:54:31;101565.66;;;23.71;33.11
72370;BME280;60343;-32.030;115.880;2022-10-16T03:56:59;101569.38;;;23.54;33.69
72370;BME280;60343;-32.030;115.880;2022-10-16T03:59:27;101580.03;;;23.55;31.78
72370;BME280;60343;-32.030;115.880;2022-10-16T04:01:55;101576.03;;;23.58;32.37
72370;BME280;60343;-32.030;115.880;2022-10-16T04:04:22;101574.78;;;23.77;33.87
72370;BME280;60343;-32.030;115.880;2022-10-16T04:06:50;101578.81;;;23.86;34.40
72370;BME280;60343;-32.030;115.880;2022-10-16T04:09:17;101573.78;;;23.94;32.77
72370;BME280;60343;-32.030;115.880;2022-10-16T04:11:51;101564.19;;;23.80;33.28
72370;BME280;60343;-32.030;115.880;2022-10-16T04:14:18;101562.41;;;23.86;33.55
72370;BME280;60343;-32.030;115.880;2022-10-16T04:16:46;101555.00;;;23.98;33.67
72370;BME280;60343;-32.030;115.880;2022-10-16T04:19:14;101555.16;;;23.80;33.81
72370;BME280;60343;-32.030;115.880;2022-10-16T04:21:41;101557.34;;;24.06;34.59
72370;BME280;60343;-32.030;115.880;2022-10-16T04:24:09;101564.22;;;24.20;34.37
72370;BME280;60343;-32.030;115.880;2022-10-16T04:26:36;101547.75;;;24.04;33.32
72370;BME280;60343;-32.030;115.880;2022-10-16T04:29:09;101557.69;;;24.10;34.71
72370;BME280;60343;-32.030;115.880;2022-10-16T04:31:37;101561.63;;;24.14;34.61
72370;BME280;60343;-32.030;115.880;2022-10-16T04:34:05;101561.56;;;24.25;34.23
72370;BME280;60343;-32.030;115.880;2022-10-16T04:36:32;101580.06;;;24.18;33.29
72370;BME280;60343;-32.030;115.880;2022-10-16T04:39:00;101580.31;;;24.05;33.13
72370;BME280;60343;-32.030;115.880;2022-10-16T04:41:28;101577.75;;;23.87;33.39
72370;BME280;60343;-32.030;115.880;2022-10-16T04:43:55;101564.59;;;23.72;33.72
72370;BME280;60343;-32.030;115.880;2022-10-16T04:46:29;101563.03;;;23.65;34.33
72370;BME280;60343;-32.030;115.880;2022-10-16T04:48:56;101560.53;;;23.75;33.53
72370;BME280;60343;-32.030;115.880;2022-10-16T04:51:24;101564.03;;;23.59;33.16
72370;BME280;60343;-32.030;115.880;2022-10-16T04:53:52;101561.03;;;23.60;33.29
72370;BME280;60343;-32.030;115.880;2022-10-16T04:56:19;101560.59;;;23.91;34.29
72370;BME280;60343;-32.030;115.880;2022-10-16T04:58:48;101564.66;;;23.89;33.62
72370;BME280;60343;-32.030;115.880;2022-10-16T05:01:15;101562.75;;;23.89;34.25
72370;BME280;60343;-32.030;115.880;2022-10-16T05:03:48;101561.13;;;23.65;32.76
72370;BME280;60343;-32.030;115.880;2022-10-16T05:06:16;101560.72;;;23.85;34.04
72370;BME280;60343;-32.030;115.880;2022-10-16T05:08:44;101561.66;;;24.02;34.10
72370;BME280;60343;-32.030;115.880;2022-10-16T05:11:11;101552.31;;;24.26;32.67
72370;BME280;60343;-32.030;115.880;2022-10-16T05:13:39;101559.13;;;24.24;33.09
72370;BME280;60343;-32.030;115.880;2022-10-16T05:16:07;101554.22;;;24.26;32.59
72370;BME280;60343;-32.030;115.880;2022-10-16T05:18:34;101560.53;;;24.15;34.07
72370;BME280;60343;-32.030;115.880;2022-10-16T05:21:08;101555.16;;;23.80;33.46
72370;BME280;60343;-32.030;115.880;2022-10-16T05:23:35;101553.69;;;24.01;33.03
72370;BME280;60343;-32.030;115.880;2022-10-16T05:26:03;101553.00;;;23.93;34.79
72370;BME280;60343;-32.030;115.880;2022-10-16T05:28:31;101551.69;;;24.24;35.35
72370;BME280;60343;-32.030;115.880;2022-10-16T05:30:59;101556.59;;;24.22;32.37
72370;BME280;60343;-32.030;115.880;2022-10-16T05:36:48;101560.47;;;24.38;31.55
72370;BME280;60343;-32.030;115.880;2022-10-16T05:39:16;101560.78;;;24.13;32.43
72370;BME280;60343;-32.030;115.880;2022-10-16T05:41:44;101551.81;;;24.29;32.58
72370;BME280;60343;-32.030;115.880;2022-10-16T05:44:12;101555.88;;;24.27;33.74
72370;BME280;60343;-32.030;115.880;2022-10-16T05:46:39;101549.72;;;24.48;32.64
72370;BME280;60343;-32.030;115.880;2022-10-16T05:49:07;101554.41;;;24.36;32.22
72370;BME280;60343;-32.030;115.880;2022-10-16T05:51:35;101552.63;;;24.30;34.18
72370;BME280;60343;-32.030;115.880;2022-10-16T05:54:10;101559.91;;;24.53;32.60
72370;BME280;60343;-32.030;115.880;2022-10-16T05:56:39;101551.75;;;24.13;32.12
72370;BME280;60343;-32.030;115.880;2022-10-16T05:59:07;101546.09;;;24.31;32.78
72370;BME280;60343;-32.030;115.880;2022-10-16T06:01:35;101545.50;;;24.74;32.74
72370;BME280;60343;-32.030;115.880;2022-10-16T06:04:02;101539.47;;;24.89;31.85
72370;BME280;60343;-32.030;115.880;2022-10-16T06:06:30;101544.28;;;24.98;32.33
72370;BME280;60343;-32.030;115.880;2022-10-16T06:08:58;101559.41;;;24.39;32.34
72370;BME280;60343;-32.030;115.880;2022-10-16T06:11:32;101541.03;;;24.40;30.68
72370;BME280;60343;-32.030;115.880;2022-10-16T06:14:01;101532.81;;;24.85;32.34
72370;BME280;60343;-32.030;115.880;2022-10-16T06:16:30;101523.50;;;24.86;31.51
72370;BME280;60343;-32.030;115.880;2022-10-16T06:18:57;101522.44;;;25.03;31.27
72370;BME280;60343;-32.030;115.880;2022-10-16T06:21:26;101520.84;;;25.24;32.64
72370;BME280;60343;-32.030;115.880;2022-10-16T06:23:55;101527.69;;;25.43;32.17
72370;BME280;60343;-32.030;115.880;2022-10-16T06:26:24;101520.78;;;25.19;31.39
72370;BME280;60343;-32.030;115.880;2022-10-16T06:28:59;101526.03;;;25.42;32.47
72370;BME280;60343;-32.030;115.880;2022-10-16T06:31:28;101525.84;;;25.49;30.33
72370;BME280;60343;-32.030;115.880;2022-10-16T06:33:56;101514.72;;;25.55;29.79
72370;BME280;60343;-32.030;115.880;2022-10-16T06:36:25;101522.63;;;25.35;30.60
72370;BME280;60343;-32.030;115.880;2022-10-16T06:38:53;101526.06;;;25.26;30.47
72370;BME280;60343;-32.030;115.880;2022-10-16T06:41:21;101518.53;;;25.54;30.05
72370;BME280;60343;-32.030;115.880;2022-10-16T06:43:49;101513.53;;;25.51;31.21
72370;BME280;60343;-32.030;115.880;2022-10-16T06:46:25;101521.44;;;25.48;30.63
72370;BME280;60343;-32.030;115.880;2022-10-16T06:48:54;101533.13;;;25.05;30.81
72370;BME280;60343;-32.030;115.880;2022-10-16T06:51:22;101518.56;;;25.38;30.25
72370;BME280;60343;-32.030;115.880;2022-10-16T06:53:51;101535.03;;;25.21;31.10
72370;BME280;60343;-32.030;115.880;2022-10-16T06:56:20;101531.81;;;25.07;31.30
72370;BME280;60343;-32.030;115.880;2022-10-16T06:58:49;101531.66;;;25.14;31.91
72370;BME280;60343;-32.030;115.880;2022-10-16T07:01:23;101539.53;;;24.04;32.82
72370;BME280;60343;-32.030;115.880;2022-10-16T07:03:52;101546.22;;;24.24;32.62
72370;BME280;60343;-32.030;115.880;2022-10-16T07:06:21;101545.41;;;24.52;31.88
72370;BME280;60343;-32.030;115.880;2022-10-16T07:08:50;101551.47;;;25.21;31.98
72370;BME280;60343;-32.030;115.880;2022-10-16T07:11:18;101542.53;;;25.47;32.18
72370;BME280;60343;-32.030;115.880;2022-10-16T07:13:47;101544.69;;;24.90;32.04
72370;BME280;60343;-32.030;115.880;2022-10-16T07:16:23;101553.19;;;24.60;32.12
72370;BME280;60343;-32.030;115.880;2022-10-16T07:18:51;101553.25;;;24.94;31.56
72370;BME280;60343;-32.030;115.880;2022-10-16T07:21:20;101548.09;;;25.52;30.77
72370;BME280;60343;-32.030;115.880;2022-10-16T07:23:51;101557.41;;;25.13;32.60
72370;BME280;60343;-32.030;115.880;2022-10-16T07:26:19;101562.31;;;25.49;32.44
72370;BME280;60343;-32.030;115.880;2022-10-16T07:28:47;101567.47;;;25.46;30.58
72370;BME280;60343;-32.030;115.880;2022-10-16T07:31:15;101573.09;;;25.73;30.40
72370;BME280;60343;-32.030;115.880;2022-10-16T07:33:49;101565.25;;;25.59;30.13
72370;BME280;60343;-32.030;115.880;2022-10-16T07:36:18;101565.38;;;25.91;30.74
72370;BME280;60343;-32.030;115.880;2022-10-16T07:38:46;101561.03;;;25.95;29.92
72370;BME280;60343;-32.030;115.880;2022-10-16T07:41:15;101556.63;;;25.73;29.52
72370;BME280;60343;-32.030;115.880;2022-10-16T07:43:47;101558.31;;;25.02;29.91
72370;BME280;60343;-32.030;115.880;2022-10-16T07:46:16;101555.72;;;25.12;30.42
72370;BME280;60343;-32.030;115.880;2022-10-16T07:48:49;101563.50;;;24.87;30.38
72370;BME280;60343;-32.030;115.880;2022-10-16T07:51:18;101562.72;;;25.03;29.80
72370;BME280;60343;-32.030;115.880;2022-10-16T07:53:46;101556.88;;;25.16;30.08
72370;BME280;60343;-32.030;115.880;2022-10-16T07:56:14;101571.69;;;24.70;30.27
72370;BME280;60343;-32.030;115.880;2022-10-16T07:58:42;101568.59;;;24.33;30.56
72370;BME280;60343;-32.030;115.880;2022-10-16T08:01:11;101566.22;;;24.25;30.71
72370;BME280;60343;-32.030;115.880;2022-10-16T08:03:42;101571.78;;;24.30;30.98
72370;BME280;60343;-32.030;115.880;2022-10-16T08:06:15;101567.59;;;24.39;30.96
72370;BME280;60343;-32.030;115.880;2022-10-16T08:08:44;101568.16;;;24.13;32.05
72370;BME280;60343;-32.030;115.880;2022-10-16T08:11:12;101563.72;;;23.83;32.42
72370;BME280;60343;-32.030;115.880;2022-10-16T08:13:40;101567.75;;;23.92;32.62
72370;BME280;60343;-32.030;115.880;2022-10-16T08:16:08;101565.56;;;24.18;33.45
72370;BME280;60343;-32.030;115.880;2022-10-16T08:18:36;101562.78;;;24.46;34.19
72370;BME280;60343;-32.030;115.880;2022-10-16T08:21:05;101573.28;;;24.49;32.96
72370;BME280;60343;-32.030;115.880;2022-10-16T08:23:39;101567.38;;;24.57;33.67
72370;BME280;60343;-32.030;115.880;2022-10-16T08:26:08;101574.69;;;24.52;34.96
72370;BME280;60343;-32.030;115.880;2022-10-16T08:28:36;101581.66;;;23.91;34.46
72370;BME280;60343;-32.030;115.880;2022-10-16T08:31:08;101594.28;;;22.69;36.78
72370;BME280;60343;-32.030;115.880;2022-10-16T08:33:34;101584.03;;;22.53;36.40
72370;BME280;60343;-32.030;115.880;2022-10-16T08:36:03;101587.50;;;22.60;35.99
72370;BME280;60343;-32.030;115.880;2022-10-16T08:38:36;101589.16;;;22.01;37.96
72370;BME280;60343;-32.030;115.880;2022-10-16T08:44:15;101603.47;;;21.04;38.71
72370;BME280;60343;-32.030;115.880;2022-10-16T08:46:50;101602.31;;;20.93;38.80
72370;BME280;60343;-32.030;115.880;2022-10-16T08:49:22;101593.41;;;20.80;39.10
72370;BME280;60343;-32.030;115.880;2022-10-16T08:51:52;101604.25;;;20.55;39.46
72370;BME280;60343;-32.030;115.880;2022-10-16T08:54:37;101606.41;;;20.78;39.39
72370;BME280;60343;-32.030;115.880;2022-10-16T08:57:11;101605.88;;;20.63;40.05
72370;BME280;60343;-32.030;115.880;2022-10-16T08:59:39;101612.03;;;20.51;42.00
72370;BME280;60343;-32.030;115.880;2022-10-16T09:02:20;101616.22;;;20.79;41.14
72370;BME280;60343;-32.030;115.880;2022-10-16T09:05:11;101613.81;;;20.64;40.39
72370;BME280;60343;-32.030;115.880;2022-10-16T09:07:51;101606.13;;;20.54;41.85
72370;BME280;60343;-32.030;115.880;2022-10-16T09:10:37;101613.84;;;20.58;42.63
72370;BME280;60343;-32.030;115.880;2022-10-16T09:13:16;101614.44;;;20.66;41.93
72370;BME280;60343;-32.030;115.880;2022-10-16T09:15:49;101615.63;;;20.45;41.94
72370;BME280;60343;-32.030;115.880;2022-10-16T09:18:22;101612.16;;;20.12;42.54
72370;BME280;60343;-32.030;115.880;2022-10-16T09:20:58;101629.84;;;19.83;43.12
72370;BME280;60343;-32.030;115.880;2022-10-16T09:23:29;101621.13;;;19.55;44.15
72370;BME280;60343;-32.030;115.880;2022-10-16T09:26:03;101623.25;;;19.46;44.09
72370;BME280;60343;-32.030;115.880;2022-10-16T09:28:32;101631.34;;;19.26;44.74
72370;BME280;60343;-32.030;115.880;2022-10-16T09:31:00;101630.53;;;19.26;45.11
72370;BME280;60343;-32.030;115.880;2022-10-16T09:33:32;101631.97;;;19.02;45.32
72370;BME280;60343;-32.030;115.880;2022-10-16T09:36:03;101624.88;;;18.95;46.46
72370;BME280;60343;-32.030;115.880;2022-10-16T09:38:33;101633.22;;;18.93;45.96
72370;BME280;60343;-32.030;115.880;2022-10-16T09:41:20;101640.53;;;18.86;47.20
72370;BME280;60343;-32.030;115.880;2022-10-16T09:43:51;101636.97;;;18.85;47.92
72370;BME280;60343;-32.030;115.880;2022-10-16T09:46:26;101640.53;;;18.86;48.25
72370;BME280;60343;-32.030;115.880;2022-10-16T09:48:56;101636.13;;;18.78;46.62
72370;BME280;60343;-32.030;115.880;2022-10-16T09:51:26;101640.25;;;18.68;47.00
72370;BME280;60343;-32.030;115.880;2022-10-16T09:53:57;101640.03;;;18.56;47.87
72370;BME280;60343;-32.030;115.880;2022-10-16T09:56:31;101640.00;;;18.50;48.06
72370;BME280;60343;-32.030;115.880;2022-10-16T09:59:01;101641.44;;;18.46;47.76
72370;BME280;60343;-32.030;115.880;2022-10-16T10:01:35;101638.50;;;18.40;47.91
72370;BME280;60343;-32.030;115.880;2022-10-16T10:04:03;101635.56;;;18.35;48.42
72370;BME280;60343;-32.030;115.880;2022-10-16T10:06:34;101641.59;;;18.37;48.57
72370;BME280;60343;-32.030;115.880;2022-10-16T10:09:13;101645.13;;;18.25;50.53
72370;BME280;60343;-32.030;115.880;2022-10-16T10:11:50;101640.88;;;18.16;51.24
72370;BME280;60343;-32.030;115.880;2022-10-16T10:14:26;101650.06;;;18.15;50.56
72370;BME280;60343;-32.030;115.880;2022-10-16T10:17:10;101657.56;;;18.13;50.32
72370;BME280;60343;-32.030;115.880;2022-10-16T10:19:39;101658.59;;;18.12;50.58
72370;BME280;60343;-32.030;115.880;2022-10-16T10:22:24;101663.16;;;18.05;50.49
72370;BME280;60343;-32.030;115.880;2022-10-16T10:25:14;101661.25;;;17.98;50.29
72370;BME280;60343;-32.030;115.880;2022-10-16T10:27:56;101669.38;;;17.98;50.59
72370;BME280;60343;-32.030;115.880;2022-10-16T10:30:29;101662.44;;;17.89;50.74
72370;BME280;60343;-32.030;115.880;2022-10-16T10:33:23;101676.38;;;17.86;51.08
72370;BME280;60343;-32.030;115.880;2022-10-16T10:35:57;101670.09;;;17.86;51.89
72370;BME280;60343;-32.030;115.880;2022-10-16T10:38:39;101676.78;;;17.83;52.78
72370;BME280;60343;-32.030;115.880;2022-10-16T10:41:21;101681.78;;;17.86;51.54
72370;BME280;60343;-32.030;115.880;2022-10-16T10:44:07;101682.44;;;17.88;51.87
72370;BME280;60343;-32.030;115.880;2022-10-16T10:46:50;101688.69;;;17.89;51.33
72370;BME280;60343;-32.030;115.880;2022-10-16T10:49:33;101685.31;;;17.80;52.18
72370;BME280;60343;-32.030;115.880;2022-10-16T10:52:13;101690.72;;;17.80;51.76
72370;BME280;60343;-32.030;115.880;2022-10-16T10:54:51;101695.50;;;17.78;52.11
72370;BME280;60343;-32.030;115.880;2022-10-16T10:57:25;101692.94;;;17.70;54.18
72370;BME280;60343;-32.030;115.880;2022-10-16T11:00:12;101699.75;;;17.66;55.88
72370;BME280;60343;-32.030;115.880;2022-10-16T11:02:50;101706.25;;;17.65;56.73
72370;BME280;60343;-32.030;115.880;2022-10-16T11:05:40;101715.78;;;17.61;56.71
72370;BME280;60343;-32.030;115.880;2022-10-16T11:08:12;101715.47;;;17.56;57.57
72370;BME280;60343;-32.030;115.880;2022-10-16T11:10:47;101720.03;;;17.49;57.66
72370;BME280;60343;-32.030;115.880;2022-10-16T11:19:33;101737.03;;;17.43;57.36
72370;BME280;60343;-32.030;115.880;2022-10-16T11:22:06;101760.63;;;17.28;58.59
72370;BME280;60343;-32.030;115.880;2022-10-16T11:24:42;101755.63;;;17.25;58.82
72370;BME280;60343;-32.030;115.880;2022-10-16T11:27:17;101760.13;;;17.17;59.67
72370;BME280;60343;-32.030;115.880;2022-10-16T11:29:49;101762.38;;;17.14;60.83
72370;BME280;60343;-32.030;115.880;2022-10-16T11:32:25;101758.53;;;16.87;62.21
72370;BME280;60343;-32.030;115.880;2022-10-16T11:35:05;101764.16;;;16.71;63.85
72370;BME280;60343;-32.030;115.880;2022-10-16T11:37:42;101766.78;;;16.64;63.78
72370;BME280;60343;-32.030;115.880;2022-10-16T11:40:19;101771.72;;;16.61;63.84
72370;BME280;60343;-32.030;115.880;2022-10-16T11:42:54;101773.78;;;16.59;66.18
72370;BME280;60343;-32.030;115.880;2022-10-16T11:45:32;101777.41;;;16.66;67.81
72370;BME280;60343;-32.030;115.880;2022-10-16T11:48:07;101780.47;;;16.63;68.40
72370;BME280;60343;-32.030;115.880;2022-10-16T11:50:51;101791.94;;;16.65;69.18
72370;BME280;60343;-32.030;115.880;2022-10-16T11:53:35;101796.97;;;16.68;68.44
72370;BME280;60343;-32.030;115.880;2022-10-16T11:56:06;101794.19;;;16.61;67.91
72370;BME280;60343;-32.030;115.880;2022-10-16T11:58:37;101796.69;;;16.48;68.27
72370;BME280;60343;-32.030;115.880;2022-10-16T12:01:10;101799.13;;;16.43;68.09
72370;BME280;60343;-32.030;115.880;2022-10-16T12:03:46;101795.28;;;16.38;68.93
72370;BME280;60343;-32.030;115.880;2022-10-16T12:06:27;101786.91;;;16.33;68.83
72370;BME280;60343;-32.030;115.880;2022-10-16T12:09:00;101790.34;;;16.26;68.34
72370;BME280;60343;-32.030;115.880;2022-10-16T12:11:38;101794.03;;;16.11;69.29
72370;BME280;60343;-32.030;115.880;2022-10-16T12:14:17;101796.00;;;16.02;69.20
72370;BME280;60343;-32.030;115.880;2022-10-16T12:16:53;101794.13;;;16.03;69.57
72370;BME280;60343;-32.030;115.880;2022-10-16T12:19:22;101804.38;;;16.07;68.85
72370;BME280;60343;-32.030;115.880;2022-10-16T12:21:57;101794.78;;;16.05;68.36
72370;BME280;60343;-32.030;115.880;2022-10-16T12:24:35;101796.56;;;15.98;68.71
72370;BME280;60343;-32.030;115.880;2022-10-16T12:27:04;101794.56;;;15.92;69.38
72370;BME280;60343;-32.030;115.880;2022-10-16T12:29:38;101804.38;;;15.93;69.32
72370;BME280;60343;-32.030;115.880;2022-10-16T12:32:19;101804.25;;;15.86;69.33
72370;BME280;60343;-32.030;115.880;2022-10-16T12:34:50;101799.84;;;15.85;69.11
72370;BME280;60343;-32.030;115.880;2022-10-16T12:37:27;101805.25;;;15.85;69.12
72370;BME280;60343;-32.030;115.880;2022-10-16T12:39:57;101806.81;;;15.79;69.35
72370;BME280;60343;-32.030;115.880;2022-10-16T12:42:33;101804.50;;;15.76;69.34
72370;BME280;60343;-32.030;115.880;2022-10-16T12:45:29;101807.75;;;15.72;69.47
72370;BME280;60343;-32.030;115.880;2022-10-16T12:47:58;101810.31;;;15.65;69.62
72370;BME280;60343;-32.030;115.880;2022-10-16T12:50:30;101812.38;;;15.63;68.97
72370;BME280;60343;-32.030;115.880;2022-10-16T12:53:03;101814.25;;;15.63;68.87
72370;BME280;60343;-32.030;115.880;2022-10-16T12:55:42;101817.94;;;15.62;69.79